createdAt,value
2018-10-17T00:02:08.651Z,80.65
2018-10-17T00:04:36.951Z,80.43
2018-10-17T00:07:05.505Z,80.88
2018-10-17T00:09:33.808Z,80.78
2018-10-17T00:12:02.174Z,81.58
2018-10-17T00:14:30.482Z,80.25
2018-10-17T00:16:58.858Z,80.74
2018-10-17T00:19:27.159Z,80.30
2018-10-17T00:21:55.467Z,81.25
2018-10-17T00:24:26.150Z,80.29
2018-10-17T00:26:54.474Z,81.23
2018-10-17T00:29:22.793Z,81.66
2018-10-17T00:31:51.296Z,81.15
2018-10-17T00:34:19.670Z,81.04
2018-10-17T00:36:47.978Z,80.61
2018-10-17T00:39:16.282Z,81.26
2018-10-17T00:41:44.595Z,81.66
2018-10-17T00:44:13.183Z,80.85
2018-10-17T00:46:41.487Z,80.35
2018-10-17T00:49:10.189Z,80.67
2018-10-17T00:51:39.123Z,81.10
2018-10-17T00:54:07.734Z,82.14
2018-10-17T00:56:36.075Z,81.72
2018-10-17T00:59:08.949Z,82.25
2018-10-17T01:01:37.539Z,82.61
2018-10-17T01:04:06.245Z,82.89
2018-10-17T01:06:34.831Z,82.23
2018-10-17T01:09:06.151Z,82.63
2018-10-17T01:11:34.727Z,82.44
2018-10-17T01:14:03.801Z,82.79
2018-10-17T01:16:32.103Z,82.22
2018-10-17T01:19:00.685Z,82.74
2018-10-17T01:21:29.014Z,83.67
2018-10-17T01:23:57.319Z,83.13
2018-10-17T01:26:25.639Z,83.62
2018-10-17T01:28:53.977Z,83.38
2018-10-17T01:31:22.307Z,82.72
2018-10-17T01:33:50.814Z,82.97
2018-10-17T01:36:19.131Z,82.72
2018-10-17T01:38:47.475Z,83.02
2018-10-17T01:41:15.886Z,82.89
2018-10-17T01:43:44.134Z,82.63
2018-10-17T01:46:12.431Z,81.34
2018-10-17T01:48:40.762Z,82.10
2018-10-17T01:51:09.072Z,82.70
2018-10-17T01:53:37.405Z,83.26
2018-10-17T01:56:06.603Z,83.55
2018-10-17T01:58:35.359Z,83.68
2018-10-17T02:01:04.320Z,83.12
2018-10-17T02:03:32.623Z,83.90
2018-10-17T02:06:01.279Z,83.34
2018-10-17T02:08:29.607Z,83.66
2018-10-17T02:10:57.905Z,81.76
2018-10-17T02:13:26.220Z,82.38
2018-10-17T02:15:54.553Z,82.44
2018-10-17T02:18:22.866Z,83.33
2018-10-17T02:20:51.555Z,83.84
2018-10-17T02:23:19.879Z,83.42
2018-10-17T02:25:48.615Z,83.49
2018-10-17T02:28:16.954Z,83.85
2018-10-17T02:30:45.243Z,81.96
2018-10-17T02:33:13.567Z,82.56
2018-10-17T02:35:41.899Z,83.00
2018-10-17T02:38:10.219Z,84.29
2018-10-17T02:40:38.532Z,83.81
2018-10-17T02:43:06.856Z,83.07
2018-10-17T02:45:35.115Z,83.99
2018-10-17T02:48:03.468Z,83.61
2018-10-17T02:50:31.766Z,83.67
2018-10-17T02:53:00.139Z,83.05
2018-10-17T02:55:28.371Z,83.06
2018-10-17T02:57:56.687Z,83.01
2018-10-17T03:00:24.975Z,82.30
2018-10-17T03:02:53.575Z,82.98
2018-10-17T03:05:21.873Z,83.65
2018-10-17T03:07:50.194Z,84.42
2018-10-17T03:10:18.503Z,84.82
2018-10-17T03:12:46.811Z,84.10
2018-10-17T03:15:15.115Z,84.41
2018-10-17T03:17:43.420Z,84.33
2018-10-17T03:20:12.051Z,84.71
2018-10-17T03:22:40.443Z,85.18
2018-10-17T03:25:09.661Z,84.21
2018-10-17T03:27:37.981Z,83.94
2018-10-17T03:30:06.490Z,84.35
2018-10-17T03:32:34.823Z,84.58
2018-10-17T03:35:03.233Z,84.99
2018-10-17T03:37:31.488Z,84.75
2018-10-17T03:39:59.791Z,84.47
2018-10-17T03:42:28.111Z,85.34
2018-10-17T03:44:56.918Z,85.09
2018-10-17T03:47:25.230Z,85.51
2018-10-17T03:49:53.552Z,85.81
2018-10-17T03:52:21.896Z,85.79
2018-10-17T03:54:50.174Z,86.04
2018-10-17T03:57:18.502Z,86.64
2018-10-17T03:59:46.857Z,86.21
2018-10-17T04:02:15.317Z,86.18
2018-10-17T04:04:43.653Z,86.10
2018-10-17T04:07:12.046Z,86.30
2018-10-17T04:09:40.740Z,85.90
2018-10-17T04:12:09.022Z,86.56
2018-10-17T04:14:37.343Z,85.40
2018-10-17T04:17:07.039Z,85.97
2018-10-17T04:19:35.327Z,85.14
2018-10-17T04:22:03.628Z,85.54
2018-10-17T04:24:31.939Z,85.03
2018-10-17T04:27:00.216Z,85.02
2018-10-17T04:29:28.539Z,85.12
2018-10-17T04:31:57.159Z,86.35
2018-10-17T04:34:25.487Z,86.42
2018-10-17T04:36:53.816Z,86.08
2018-10-17T04:39:22.143Z,86.28
2018-10-17T04:41:50.439Z,85.91
2018-10-17T04:44:18.747Z,86.58
2018-10-17T04:46:47.039Z,85.77
2018-10-17T04:49:16.222Z,85.81
2018-10-17T04:51:44.631Z,86.41
2018-10-17T04:54:12.942Z,87.01
2018-10-17T04:56:41.263Z,87.33
2018-10-17T04:59:10.165Z,87.27
2018-10-17T05:01:38.639Z,85.61
2018-10-17T05:04:07.311Z,86.20
2018-10-17T05:06:35.642Z,86.82
2018-10-17T05:09:04.556Z,88.59
2018-10-17T05:11:32.847Z,88.65
2018-10-17T05:14:01.504Z,88.23
2018-10-17T05:16:29.792Z,88.69
2018-10-17T05:18:58.122Z,88.15
2018-10-17T05:21:26.499Z,87.00
2018-10-17T05:23:54.783Z,87.25
2018-10-17T05:26:23.107Z,86.77
2018-10-17T05:28:51.399Z,87.29
2018-10-17T05:31:19.732Z,87.43
2018-10-17T05:33:48.011Z,87.19
2018-10-17T05:36:16.391Z,86.81
2018-10-17T05:38:44.691Z,87.20
2018-10-17T05:41:13.103Z,86.75
2018-10-17T05:43:41.344Z,87.53
2018-10-17T05:46:09.668Z,87.11
2018-10-17T05:48:37.975Z,87.31
2018-10-17T05:51:06.318Z,86.90
2018-10-17T05:53:34.615Z,86.28
2018-10-17T05:56:02.931Z,86.05
2018-10-17T05:58:31.245Z,85.46
2018-10-17T06:00:59.619Z,85.49
2018-10-17T06:03:27.885Z,85.71
2018-10-17T06:05:56.209Z,85.94
2018-10-17T06:08:24.507Z,85.65
2018-10-17T06:10:53.082Z,85.78
2018-10-17T06:13:21.392Z,83.47
2018-10-17T06:15:49.704Z,83.42
2018-10-17T06:18:18.147Z,83.09
2018-10-17T06:20:46.516Z,82.82
2018-10-17T06:23:14.847Z,82.31
2018-10-17T06:25:43.145Z,81.47
2018-10-17T06:28:11.465Z,82.18
2018-10-17T06:30:39.839Z,82.02
2018-10-17T06:33:08.099Z,83.28
2018-10-17T06:35:36.430Z,82.62
2018-10-17T06:38:04.792Z,82.17
2018-10-17T06:40:33.129Z,81.02
2018-10-17T06:43:01.500Z,80.30
2018-10-17T06:45:29.776Z,78.31
2018-10-17T06:47:58.079Z,77.52
2018-10-17T06:50:26.407Z,77.61
2018-10-17T06:52:54.772Z,76.57
2018-10-17T06:55:23.056Z,76.72
2018-10-17T06:57:51.367Z,76.29
2018-10-17T07:00:19.678Z,77.07
2018-10-17T07:02:47.999Z,74.95
2018-10-17T07:05:16.359Z,73.92
2018-10-17T07:07:44.655Z,71.01
2018-10-17T07:10:12.975Z,66.30
2018-10-17T07:12:41.412Z,60.54
2018-10-17T07:15:09.742Z,59.42
2018-10-17T07:17:38.055Z,59.90
2018-10-17T07:20:07.535Z,61.26
2018-10-17T07:22:35.863Z,63.97
2018-10-17T07:25:04.543Z,65.51
2018-10-17T07:27:32.855Z,64.65
2018-10-17T07:30:01.156Z,63.84
2018-10-17T07:32:29.482Z,61.78
2018-10-17T07:34:57.796Z,61.25
2018-10-17T07:37:26.595Z,61.36
2018-10-17T07:39:54.904Z,62.46
2018-10-17T07:42:23.238Z,60.01
2018-10-17T07:44:51.623Z,57.56
2018-10-17T07:47:19.955Z,59.53
2018-10-17T07:49:48.269Z,60.28
2018-10-17T07:52:16.614Z,60.67
2018-10-17T07:54:44.953Z,59.50
2018-10-17T07:57:13.280Z,58.88
2018-10-17T07:59:41.611Z,58.80
2018-10-17T08:02:09.933Z,53.02
2018-10-17T08:04:38.274Z,47.57
2018-10-17T08:07:06.698Z,40.84
2018-10-17T08:09:34.965Z,38.97
2018-10-17T08:12:03.373Z,37.58
2018-10-17T08:14:31.619Z,39.27
2018-10-17T08:16:59.958Z,40.75
2018-10-17T08:19:28.255Z,37.89
2018-10-17T08:21:56.580Z,36.15
2018-10-17T08:24:24.891Z,34.28
2018-10-17T08:26:53.229Z,33.43
2018-10-17T08:29:21.523Z,33.72
2018-10-17T08:31:50.144Z,32.85
2018-10-17T08:34:18.442Z,33.40
2018-10-17T08:36:47.043Z,34.67
2018-10-17T08:39:16.171Z,32.80
2018-10-17T08:41:44.504Z,29.55
2018-10-17T08:44:13.117Z,30.33
2018-10-17T08:46:41.539Z,28.03
2018-10-17T08:49:09.843Z,26.51
2018-10-17T08:51:38.170Z,25.93
2018-10-17T08:54:06.823Z,26.49
2018-10-17T08:56:35.248Z,27.30
2018-10-17T08:59:03.571Z,25.64
2018-10-17T09:01:31.886Z,25.33
2018-10-17T09:04:00.664Z,26.72
2018-10-17T09:06:28.991Z,27.09
2018-10-17T09:08:57.628Z,28.87
2018-10-17T09:11:25.979Z,26.61
2018-10-17T09:13:54.372Z,24.96
2018-10-17T09:16:22.681Z,24.34
2018-10-17T09:18:50.982Z,22.80
2018-10-17T09:21:19.638Z,24.05
2018-10-17T09:23:47.702Z,23.83
2018-10-17T09:26:16.027Z,23.36
2018-10-17T09:28:44.322Z,21.97
2018-10-17T09:31:12.627Z,20.59
2018-10-17T09:33:40.931Z,19.96
2018-10-17T09:36:09.324Z,19.11
2018-10-17T09:38:37.573Z,18.80
2018-10-17T09:41:05.939Z,17.58
2018-10-17T09:43:34.250Z,15.53
2018-10-17T09:46:02.580Z,18.57
2018-10-17T09:48:30.888Z,17.46
2018-10-17T09:50:59.487Z,18.55
2018-10-17T09:53:27.900Z,20.71
2018-10-17T09:55:56.208Z,19.15
2018-10-17T09:58:24.503Z,19.42
2018-10-17T10:00:58.016Z,20.28
2018-10-17T10:03:26.347Z,19.71
2018-10-17T10:05:54.685Z,19.46
2018-10-17T10:08:23.012Z,20.00
2018-10-17T10:10:51.702Z,21.23
2018-10-17T10:13:20.003Z,21.15
2018-10-17T10:15:48.341Z,21.03
2018-10-17T10:18:16.664Z,19.83
2018-10-17T10:20:44.931Z,18.42
2018-10-17T10:23:13.270Z,19.11
2018-10-17T10:25:41.543Z,17.94
2018-10-17T10:28:10.380Z,17.97
2018-10-17T10:30:38.595Z,20.46
2018-10-17T10:33:06.883Z,19.98
2018-10-17T10:35:35.151Z,19.28
2018-10-17T10:38:03.442Z,18.35
2018-10-17T10:40:31.733Z,21.92
2018-10-17T10:42:59.993Z,20.46
2018-10-17T10:45:28.332Z,18.99
2018-10-17T10:47:56.595Z,18.97
2018-10-17T10:50:24.816Z,20.71
2018-10-17T10:52:53.192Z,19.99
2018-10-17T10:55:21.383Z,19.31
2018-10-17T10:57:49.723Z,20.48
2018-10-17T11:00:18.058Z,21.08
2018-10-17T11:02:46.283Z,20.57
2018-10-17T11:05:14.639Z,21.46
2018-10-17T11:07:42.903Z,21.61
2018-10-17T11:10:11.193Z,21.33
2018-10-17T11:12:39.463Z,20.62
2018-10-17T11:15:08.305Z,19.46
2018-10-17T11:17:36.591Z,19.54
2018-10-17T11:20:05.428Z,20.19
2018-10-17T11:22:33.699Z,19.39
2018-10-17T11:25:01.947Z,20.10
2018-10-17T11:27:30.268Z,20.18
2018-10-17T11:29:58.550Z,18.88
2018-10-17T11:32:26.836Z,19.07
2018-10-17T11:34:55.121Z,18.64
2018-10-17T11:37:23.491Z,20.69
2018-10-17T11:39:51.741Z,17.99
2018-10-17T11:42:20.005Z,15.69
2018-10-17T11:44:48.269Z,16.56
2018-10-17T11:47:16.629Z,15.26
2018-10-17T11:49:44.863Z,18.18
2018-10-17T11:52:13.152Z,20.29
2018-10-17T11:54:41.483Z,19.70
2018-10-17T11:57:10.876Z,19.84
2018-10-17T11:59:39.188Z,19.14
2018-10-17T12:02:07.486Z,15.78
2018-10-17T12:04:36.016Z,16.03
2018-10-17T12:07:04.040Z,16.56
2018-10-17T12:09:32.394Z,16.97
2018-10-17T12:12:00.745Z,16.37
2018-10-17T12:14:29.663Z,19.20
2018-10-17T12:16:57.958Z,20.01
2018-10-17T12:19:26.239Z,18.60
2018-10-17T12:21:54.555Z,18.45
2018-10-17T12:24:22.814Z,16.49
2018-10-17T12:26:51.108Z,15.52
2018-10-17T12:29:19.390Z,15.48
2018-10-17T12:31:47.652Z,15.60
2018-10-17T12:34:15.926Z,15.27
2018-10-17T12:36:44.215Z,13.55
2018-10-17T12:39:13.475Z,14.56
2018-10-17T12:41:42.156Z,15.17
2018-10-17T12:44:10.458Z,15.49
2018-10-17T12:46:38.692Z,15.89
2018-10-17T12:49:07.080Z,15.33
2018-10-17T12:51:35.347Z,15.84
2018-10-17T12:54:03.638Z,17.10
2018-10-17T12:56:31.895Z,15.00
2018-10-17T12:59:00.252Z,16.24
2018-10-17T13:01:29.391Z,15.27
2018-10-17T13:03:57.683Z,16.51
2018-10-17T13:06:25.955Z,15.48
2018-10-17T13:08:54.235Z,15.32
2018-10-17T13:11:22.608Z,15.84
2018-10-17T13:13:50.869Z,16.00
2018-10-17T13:16:19.143Z,17.23
2018-10-17T13:18:47.428Z,15.54
2018-10-17T13:21:15.715Z,16.69
2018-10-17T13:23:43.995Z,16.92
2018-10-17T13:26:12.279Z,16.85
2018-10-17T13:28:40.572Z,15.33
2018-10-17T13:31:08.869Z,16.36
2018-10-17T13:33:37.107Z,16.56
2018-10-17T13:36:05.414Z,17.61
2018-10-17T13:38:33.702Z,17.00
2018-10-17T13:41:02.048Z,15.67
2018-10-17T13:43:30.471Z,15.56
2018-10-17T13:45:58.738Z,16.68
2018-10-17T13:48:27.027Z,15.69
2018-10-17T13:50:55.292Z,17.29
2018-10-17T13:53:23.584Z,17.25
2018-10-17T13:55:51.857Z,17.83
2018-10-17T13:58:20.541Z,16.96
2018-10-17T14:00:48.971Z,18.12
2018-10-17T14:03:17.453Z,18.36
2018-10-17T14:05:45.710Z,19.02
2018-10-17T14:08:14.008Z,18.75
2018-10-17T14:10:42.287Z,18.81
2018-10-17T14:13:10.595Z,20.54
2018-10-17T14:15:38.883Z,19.58
2018-10-17T14:18:07.198Z,21.80
2018-10-17T14:20:35.459Z,21.31
2018-10-17T14:23:03.795Z,21.61
2018-10-17T14:25:32.560Z,23.43
2018-10-17T14:28:00.875Z,23.58
2018-10-17T14:30:29.264Z,24.10
2018-10-17T14:32:57.624Z,26.06
2018-10-17T14:35:25.851Z,25.25
2018-10-17T14:37:54.288Z,24.42
2018-10-17T14:40:22.467Z,25.11
2018-10-17T14:42:50.753Z,24.87
2018-10-17T14:45:19.079Z,24.25
2018-10-17T14:47:47.331Z,23.39
2018-10-17T14:50:15.588Z,23.41
2018-10-17T14:52:43.866Z,24.43
2018-10-17T14:55:12.161Z,25.28
2018-10-17T14:57:40.456Z,26.28
2018-10-17T15:00:12.516Z,25.74
2018-10-17T15:02:40.779Z,27.99
2018-10-17T15:05:09.406Z,29.95
2018-10-17T15:07:37.627Z,30.67
2018-10-17T15:10:06.218Z,32.61
2018-10-17T15:12:34.443Z,32.38
2018-10-17T15:15:02.815Z,32.24
2018-10-17T15:17:31.018Z,31.46
2018-10-17T15:19:59.307Z,32.44
2018-10-17T15:22:27.771Z,31.18
2018-10-17T15:24:56.333Z,31.15
2018-10-17T15:27:24.609Z,32.34
2018-10-17T15:29:52.918Z,33.74
2018-10-17T15:32:21.186Z,35.16
2018-10-17T15:34:49.487Z,35.06
2018-10-17T15:37:17.775Z,37.36
2018-10-17T15:39:46.387Z,37.41
2018-10-17T15:42:14.764Z,37.12
2018-10-17T15:44:42.963Z,38.32
2018-10-17T15:47:11.671Z,39.90
2018-10-17T15:49:39.977Z,39.89
2018-10-17T15:52:08.251Z,41.03
2018-10-17T15:54:36.541Z,41.81
2018-10-17T15:57:04.938Z,43.86
2018-10-17T15:59:33.230Z,45.03
2018-10-17T16:02:01.731Z,45.33
2018-10-17T16:04:29.947Z,45.96
2018-10-17T16:06:58.254Z,46.94
2018-10-17T16:09:26.529Z,47.85
2018-10-17T16:11:55.328Z,48.95
2018-10-17T16:14:23.915Z,50.42
2018-10-17T16:16:52.431Z,51.85
2018-10-17T16:19:20.695Z,52.71
2018-10-17T16:21:48.974Z,54.29
2018-10-17T16:24:17.283Z,54.94
2018-10-17T16:26:45.599Z,55.68
2018-10-17T16:29:13.863Z,57.06
2018-10-17T16:31:42.175Z,58.10
2018-10-17T16:34:10.473Z,58.63
2018-10-17T16:36:38.774Z,58.52
2018-10-17T16:39:11.800Z,59.93
2018-10-17T16:41:40.179Z,60.71
2018-10-17T16:44:08.769Z,61.26
2018-10-17T16:46:37.367Z,61.93
2018-10-17T16:49:06.090Z,62.33
2018-10-17T16:51:35.213Z,62.38
2018-10-17T16:54:03.635Z,62.68
2018-10-17T16:56:31.903Z,63.48
2018-10-17T16:59:00.168Z,63.74
2018-10-17T17:01:28.499Z,63.85
2018-10-17T17:03:56.797Z,64.21
2018-10-17T17:06:25.260Z,64.31
2018-10-17T17:08:53.548Z,64.78
2018-10-17T17:11:21.795Z,65.37
2018-10-17T17:13:50.331Z,65.70
2018-10-17T17:16:18.680Z,66.11
2018-10-17T17:18:46.907Z,65.22
2018-10-17T17:21:15.384Z,66.16
2018-10-17T17:23:43.632Z,66.37
2018-10-17T17:26:11.920Z,67.09
2018-10-17T17:28:40.187Z,67.76
2018-10-17T17:31:08.447Z,67.33
2018-10-17T17:33:36.728Z,68.24
2018-10-17T17:36:05.172Z,67.82
2018-10-17T17:38:33.454Z,67.58
2018-10-17T17:41:02.337Z,67.53
2018-10-17T17:43:33.144Z,67.92
2018-10-17T17:46:01.500Z,67.43
2018-10-17T17:48:29.743Z,67.41
2018-10-17T17:50:58.031Z,67.54
2018-10-17T17:53:26.407Z,67.68
2018-10-17T17:55:54.708Z,67.76
2018-10-17T17:58:23.099Z,67.80
2018-10-17T18:00:51.323Z,67.67
2018-10-17T18:03:19.626Z,67.99
2018-10-17T18:05:47.899Z,67.91
2018-10-17T18:08:16.179Z,68.13
2018-10-17T18:10:44.450Z,68.28
2018-10-17T18:13:12.715Z,68.59
2018-10-17T18:15:40.984Z,69.06
2018-10-17T18:18:09.261Z,68.54
2018-10-17T18:20:37.548Z,68.77
2018-10-17T18:23:06.391Z,68.25
2018-10-17T18:25:34.691Z,69.09
2018-10-17T18:28:03.056Z,69.45
2018-10-17T18:30:31.295Z,69.37
2018-10-17T18:32:59.591Z,68.96
2018-10-17T18:35:27.880Z,68.43
2018-10-17T18:37:56.292Z,68.62
2018-10-17T18:40:24.820Z,68.31
2018-10-17T18:42:53.067Z,67.97
2018-10-17T18:45:21.363Z,68.62
2018-10-17T18:47:49.812Z,68.53
2018-10-17T18:50:18.093Z,69.35
2018-10-17T18:52:46.372Z,69.01
2018-10-17T18:55:14.701Z,69.35
2018-10-17T18:57:43.000Z,69.70
2018-10-17T19:00:11.376Z,69.75
2018-10-17T19:02:39.758Z,68.87
2018-10-17T19:05:08.056Z,69.66
2018-10-17T19:07:36.379Z,69.90
2018-10-17T19:10:04.734Z,69.46
2018-10-17T19:12:33.059Z,69.68
2018-10-17T19:15:01.382Z,70.55
2018-10-17T19:17:30.564Z,70.26
2018-10-17T19:19:58.843Z,70.55
2018-10-17T19:22:27.420Z,70.12
2018-10-17T19:24:55.708Z,70.12
2018-10-17T19:27:24.001Z,70.59
2018-10-17T19:29:52.399Z,70.83
2018-10-17T19:32:20.683Z,70.70
2018-10-17T19:34:48.996Z,71.46
2018-10-17T19:37:17.267Z,70.62
2018-10-17T19:39:45.553Z,70.83
2018-10-17T19:42:13.823Z,70.54
2018-10-17T19:44:42.100Z,71.83
2018-10-17T19:47:10.375Z,71.95
2018-10-17T19:49:38.646Z,71.91
2018-10-17T19:52:07.220Z,72.78
2018-10-17T19:54:35.492Z,72.23
2018-10-17T19:57:04.000Z,73.36
2018-10-17T19:59:32.263Z,72.31
2018-10-17T20:02:00.584Z,72.25
2018-10-17T20:04:28.884Z,72.14
2018-10-17T20:06:57.267Z,71.80
2018-10-17T20:09:25.687Z,72.88
2018-10-17T20:11:54.009Z,72.66
2018-10-17T20:14:22.305Z,72.09
2018-10-17T20:16:50.683Z,72.00
2018-10-17T20:19:18.938Z,72.51
2018-10-17T20:21:47.223Z,72.76
2018-10-17T20:24:15.498Z,73.19
2018-10-17T20:26:43.864Z,72.80
2018-10-17T20:29:12.176Z,72.87
2018-10-17T20:31:40.468Z,73.01
2018-10-17T20:34:08.743Z,73.33
2018-10-17T20:36:37.020Z,73.32
2018-10-17T20:39:09.251Z,73.48
2018-10-17T20:41:37.540Z,73.29
2018-10-17T20:44:06.013Z,73.54
2018-10-17T20:46:34.251Z,73.50
2018-10-17T20:49:02.542Z,73.60
2018-10-17T20:51:31.159Z,74.02
2018-10-17T20:53:59.779Z,73.77
2018-10-17T20:56:28.056Z,74.33
2018-10-17T20:58:56.354Z,74.17
2018-10-17T21:01:24.623Z,74.80
2018-10-17T21:03:52.927Z,74.72
2018-10-17T21:06:21.196Z,74.73
2018-10-17T21:08:49.482Z,74.61
2018-10-17T21:11:17.883Z,74.55
2018-10-17T21:13:46.167Z,75.39
2018-10-17T21:16:14.443Z,76.21
2018-10-17T21:18:42.833Z,76.69
2018-10-17T21:21:11.035Z,76.12
2018-10-17T21:23:39.319Z,76.25
2018-10-17T21:26:07.617Z,75.70
2018-10-17T21:28:35.903Z,76.01
2018-10-17T21:31:04.184Z,76.53
2018-10-17T21:33:32.467Z,76.39
2018-10-17T21:36:00.716Z,76.79
2018-10-17T21:38:29.012Z,76.81
2018-10-17T21:40:57.291Z,76.82
2018-10-17T21:43:25.581Z,77.78
2018-10-17T21:45:53.836Z,77.60
2018-10-17T21:48:22.368Z,78.42
2018-10-17T21:50:50.627Z,78.41
2018-10-17T21:53:19.092Z,78.91
2018-10-17T21:55:47.563Z,79.11
2018-10-17T21:58:15.971Z,78.29
2018-10-17T22:00:44.287Z,77.64
2018-10-17T22:03:12.618Z,77.45
2018-10-17T22:05:40.880Z,78.01
2018-10-17T22:08:09.282Z,77.99
2018-10-17T22:10:37.455Z,78.10
2018-10-17T22:13:05.907Z,78.70
2018-10-17T22:15:34.567Z,79.31
2018-10-17T22:18:02.879Z,80.03
2018-10-17T22:20:31.152Z,79.61
2018-10-17T22:22:59.424Z,80.32
2018-10-17T22:25:27.716Z,80.50
2018-10-17T22:27:55.963Z,81.08
2018-10-17T22:30:24.239Z,80.35
2018-10-17T22:32:52.511Z,80.54
2018-10-17T22:35:20.791Z,80.33
2018-10-17T22:37:49.067Z,80.28
2018-10-17T22:40:17.351Z,81.02
2018-10-17T22:42:45.639Z,79.57
2018-10-17T22:45:13.920Z,79.87
2018-10-17T22:47:42.184Z,80.02
2018-10-17T22:50:11.193Z,80.15
2018-10-17T22:52:39.906Z,79.48
2018-10-17T22:55:08.267Z,79.26
2018-10-17T22:57:36.504Z,79.96
2018-10-17T23:00:05.551Z,80.47
2018-10-17T23:02:33.838Z,80.07
2018-10-17T23:05:02.129Z,81.06
2018-10-17T23:07:30.390Z,80.86
2018-10-17T23:09:58.702Z,81.03
2018-10-17T23:12:26.984Z,81.37
2018-10-17T23:14:55.267Z,81.55
2018-10-17T23:17:23.538Z,82.27
2018-10-17T23:19:51.823Z,83.04
2018-10-17T23:22:20.089Z,82.45
2018-10-17T23:24:48.375Z,82.49
2018-10-17T23:27:16.640Z,81.66
2018-10-17T23:29:44.920Z,82.30
2018-10-17T23:32:13.346Z,82.11
2018-10-17T23:34:41.481Z,80.90
2018-10-17T23:37:09.752Z,79.74
2018-10-17T23:39:38.028Z,80.26
2018-10-17T23:42:06.733Z,81.45
2018-10-17T23:44:34.926Z,82.08
2018-10-17T23:47:03.238Z,81.91
2018-10-17T23:49:33.984Z,82.99
2018-10-17T23:52:02.283Z,82.87
2018-10-17T23:54:30.535Z,83.32
2018-10-17T23:56:58.835Z,83.59
2018-10-17T23:59:27.091Z,84.20
